Time;durP1;ratioP1;P1;durP2;ratioP2;P2;SDS_P1;SDS_P2;PMS_P1;PMS_P2;Temp;Humidity;BMP_temperature;BMP_pressure;BME280_temperature;BME280_humidity;BME280_pressure;Samples;Min_cycle;Max_cycle;Signal;HPM_P1;HPM_P2
2022/05/01 00:00:42;;;;;;;13.27;7.63;;;;;;;17.72;55.20;101054.28;5113170;27;20135;-78
2022/05/01 00:03:30;;;;;;;15.75;6.57;;;;;;;17.67;55.04;101043.06;5114716;27;20126;-77
2022/05/01 00:06:01;;;;;;;16.88;7.40;;;;;;;17.63;55.02;101039.22;5110121;28;20140;-77
2022/05/01 00:08:28;;;;;;;16.67;7.35;;;;;;;17.76;55.24;101077.94;5113560;27;20111;-79
2022/05/01 00:10:55;;;;;;;14.38;7.72;;;;;;;17.75;55.24;101065.78;5116305;28;20079;-78
2022/05/01 00:13:40;;;;;;;12.02;7.07;;;;;;;17.66;54.82;101033.78;5120127;27;20055;-80
2022/05/01 00:16:08;;;;;;;12.93;6.82;;;;;;;17.90;55.06;101055.31;5125289;27;20568;-78
2022/05/01 00:18:35;;;;;;;11.30;6.68;;;;;;;17.47;54.66;100985.91;5123990;28;20051;-79
2022/05/01 00:21:03;;;;;;;12.43;6.93;;;;;;;17.93;55.08;101051.84;5108172;27;20561;-80
2022/05/01 00:23:30;;;;;;;11.55;6.43;;;;;;;17.93;55.02;101051.84;5108262;27;20091;-84
2022/05/01 00:25:58;;;;;;;13.50;6.13;;;;;;;17.92;54.96;101039.72;5110145;28;20136;-84
2022/05/01 00:28:25;;;;;;;16.45;6.43;;;;;;;17.71;55.02;101007.41;5105949;28;20104;-87
2022/05/01 00:30:52;;;;;;;15.98;7.65;;;;;;;17.76;54.76;101010.97;5104297;27;20043;-89
2022/05/01 00:38:50;;;;;;;14.55;7.38;;;;;;;17.94;55.07;101026.09;5107719;28;20122;-88
2022/05/01 00:41:17;;;;;;;13.43;7.97;;;;;;;17.94;54.74;101036.56;5110115;27;20075;-82
2022/05/01 00:44:06;;;;;;;13.82;7.40;;;;;;;17.99;54.87;101033.63;5110797;27;20048;-77
2022/05/01 00:46:38;;;;;;;14.45;8.18;;;;;;;18.00;54.96;101030.47;5108055;28;20063;-77
2022/05/01 00:49:08;;;;;;;17.25;7.10;;;;;;;18.04;54.82;101041.97;5110954;27;20068;-78
2022/05/01 00:51:41;;;;;;;15.88;7.15;;;;;;;17.71;54.86;100991.31;5106544;28;20063;-78
2022/05/01 00:54:08;;;;;;;14.18;7.20;;;;;;;18.00;54.35;101035.28;5109917;27;20817;-79
2022/05/01 00:56:47;;;;;;;25.02;9.25;;;;;;;17.77;54.51;101009.81;5110049;28;20096;-80
2022/05/01 00:59:14;;;;;;;18.27;9.18;;;;;;;17.90;54.31;101015.75;5110352;28;20116;-79
2022/05/01 01:01:43;;;;;;;19.38;9.35;;;;;;;17.75;54.48;100995.16;5141105;27;20391;-79
2022/05/01 01:04:10;;;;;;;16.50;9.10;;;;;;;17.68;54.48;100980.63;5109915;28;20055;-79
2022/05/01 01:06:39;;;;;;;15.98;9.10;;;;;;;17.89;54.11;101005.63;5110673;27;20079;-79
2022/05/01 01:09:06;;;;;;;24.23;10.00;;;;;;;18.03;54.16;101020.53;5110454;28;20086;-81
2022/05/01 01:11:33;;;;;;;14.73;9.15;;;;;;;17.93;54.40;101001.00;5108023;27;20078;-82
2022/05/01 01:14:03;;;;;;;16.92;8.57;;;;;;;17.85;54.03;100990.47;5109807;28;20587;-80
2022/05/01 01:16:29;;;;;;;14.20;8.48;;;;;;;17.87;54.21;100994.63;5109727;27;20553;-80
2022/05/01 01:18:57;;;;;;;23.60;9.18;;;;;;;17.86;54.19;100994.94;5111820;28;20186;-80
2022/05/01 01:21:24;;;;;;;16.73;7.95;;;;;;;17.99;54.06;101011.03;5140866;27;20161;-80
2022/05/01 01:23:52;;;;;;;14.63;7.80;;;;;;;17.69;54.43;100964.53;5110739;27;20116;-81
2022/05/01 01:26:20;;;;;;;11.70;6.47;;;;;;;17.93;54.03;101001.00;5142968;27;20097;-81
2022/05/01 01:28:48;;;;;;;14.23;7.75;;;;;;;17.90;54.25;100993.97;5112904;28;20130;-83
2022/05/01 01:34:06;;;;;;;14.20;8.10;;;;;;;17.93;53.81;101007.47;5108129;28;20120;-82
2022/05/01 01:36:35;;;;;;;14.20;7.22;;;;;;;17.74;54.51;100985.03;5111566;27;20120;-82
2022/05/01 01:39:02;;;;;;;31.60;8.75;;;;;;;17.66;54.57;100974.47;5103852;27;20079;-80
2022/05/01 01:41:31;;;;;;;15.05;7.18;;;;;;;17.73;54.22;100979.66;5104306;28;20150;-79
2022/05/01 01:43:59;;;;;;;19.40;7.65;;;;;;;17.65;53.95;100975.63;5108103;27;20079;-81
2022/05/01 01:46:26;;;;;;;14.85;7.47;;;;;;;17.78;53.86;100999.38;5108987;27;20044;-81
2022/05/01 01:48:53;;;;;;;20.65;7.50;;;;;;;17.65;54.28;100969.97;5110226;28;20051;-82
2022/05/01 01:51:20;;;;;;;12.02;6.53;;;;;;;17.89;54.07;101006.44;5105494;27;20131;-82
2022/05/01 01:53:47;;;;;;;16.10;6.20;;;;;;;17.53;54.20;100966.84;5107410;27;20126;-82
2022/05/01 01:56:14;;;;;;;13.82;6.88;;;;;;;17.80;54.37;101004.69;5104600;28;20071;-83
2022/05/01 01:58:42;;;;;;;15.25;6.80;;;;;;;17.79;54.04;101008.69;5109105;27;20086;-83
2022/05/01 02:01:12;;;;;;;12.18;7.00;;;;;;;17.71;53.76;100996.94;5106950;27;20071;-84
2022/05/01 02:03:39;;;;;;;14.52;7.78;;;;;;;17.50;53.94;100950.53;5107276;28;20051;-83
2022/05/01 02:06:09;;;;;;;14.23;6.80;;;;;;;17.57;54.03;100961.41;5106023;28;20098;-83
2022/05/01 02:08:36;;;;;;;11.70;6.97;;;;;;;17.58;54.16;100960.28;5108831;27;20054;-82
2022/05/01 02:11:04;;;;;;;15.02;6.82;;;;;;;17.68;54.14;100971.34;5109881;27;20043;-82
2022/05/01 02:13:34;;;;;;;18.60;7.53;;;;;;;17.81;54.44;101003.53;5111017;27;20676;-82
2022/05/01 02:16:01;;;;;;;15.35;7.30;;;;;;;17.55;54.32;100958.91;5138791;27;20074;-80
2022/05/01 02:18:28;;;;;;;14.48;6.30;;;;;;;17.72;53.89;100992.13;5106561;28;20145;-80
2022/05/01 02:23:40;;;;;;;12.68;5.85;;;;;;;17.77;54.17;100984.38;5107357;28;20846;-84
2022/05/01 02:26:07;;;;;;;12.60;6.72;;;;;;;17.42;54.21;100934.38;5110717;28;20052;-86
2022/05/01 02:28:34;;;;;;;11.85;5.60;;;;;;;17.27;54.08;100913.81;5112321;27;20055;-86
2022/05/01 02:31:01;;;;;;;14.50;5.45;;;;;;;17.65;53.97;100974.78;5113513;27;20079;-83
2022/05/01 02:33:29;;;;;;;11.68;6.20;;;;;;;17.60;53.99;100966.41;5120529;27;20054;-83
2022/05/01 02:35:56;;;;;;;17.33;5.63;;;;;;;17.58;54.29;100989.34;5125505;28;20498;-82
2022/05/01 02:38:23;;;;;;;10.55;5.18;;;;;;;17.57;54.32;100990.47;5124178;28;20075;-83
2022/05/01 02:40:50;;;;;;;11.65;5.60;;;;;;;17.43;54.18;100970.75;5115662;28;20082;-85
2022/05/01 02:43:17;;;;;;;11.70;6.03;;;;;;;17.54;54.13;100991.13;5109135;28;20090;-87
2022/05/01 02:45:44;;;;;;;10.55;6.30;;;;;;;17.48;54.32;100973.47;5112932;28;20040;-86
2022/05/01 02:48:11;;;;;;;12.18;5.32;;;;;;;17.63;54.34;100994.84;5112182;27;20044;-86
2022/05/01 02:50:38;;;;;;;10.65;5.68;;;;;;;17.67;54.14;101001.53;5140993;27;20079;-86
2022/05/01 02:53:05;;;;;;;9.30;4.95;;;;;;;17.46;54.06;100966.44;5134499;27;20074;-85
2022/05/01 02:55:32;;;;;;;9.20;4.95;;;;;;;17.47;54.11;100962.47;5102223;27;20056;-80
2022/05/01 02:57:59;;;;;;;10.68;5.22;;;;;;;17.50;53.93;100974.00;5109198;28;20107;-81
2022/05/01 03:00:26;;;;;;;10.65;5.13;;;;;;;17.53;54.04;100984.63;5117653;28;20063;-82
2022/05/01 03:02:57;;;;;;;13.85;5.65;;;;;;;17.44;54.28;100968.78;5121639;28;20044;-83
2022/05/01 03:05:26;;;;;;;11.30;5.50;;;;;;;17.34;54.07;100963.34;5140633;27;20044;-81
2022/05/01 03:07:55;;;;;;;13.25;5.68;;;;;;;17.40;54.13;100962.06;5111173;28;22426;-82
2022/05/01 03:10:25;;;;;;;8.15;4.57;;;;;;;17.15;54.21;100916.31;5108818;28;20128;-81
2022/05/01 03:12:52;;;;;;;11.20;5.45;;;;;;;17.37;53.75;100955.09;5107956;28;20069;-85
2022/05/01 03:15:19;;;;;;;13.38;5.32;;;;;;;17.33;53.88;100944.72;5111144;28;20135;-82
2022/05/01 03:23:17;;;;;;;13.63;5.82;;;;;;;17.50;53.87;100990.94;5107190;28;20120;-83
2022/05/01 03:25:44;;;;;;;11.90;5.15;;;;;;;17.23;53.86;100963.59;5114212;27;20043;-87
2022/05/01 03:28:11;;;;;;;12.07;5.57;;;;;;;17.25;53.65;100958.44;5111173;28;20550;-83
2022/05/01 03:30:38;;;;;;;8.75;5.03;;;;;;;17.40;53.77;100974.22;5109723;28;20526;-84
2022/05/01 03:33:07;;;;;;;9.13;4.75;;;;;;;17.53;53.63;100983.78;5116716;27;20052;-82
2022/05/01 03:35:37;;;;;;;8.98;5.25;;;;;;;17.29;53.93;100944.53;5111302;27;20039;-82
2022/05/01 03:38:08;;;;;;;14.75;5.63;;;;;;;17.42;54.21;100977.53;5110527;28;20450;-82
2022/05/01 03:40:35;;;;;;;10.50;5.05;;;;;;;17.34;54.16;100963.34;5111976;28;20094;-82
2022/05/01 03:43:04;;;;;;;15.15;5.18;;;;;;;17.35;54.09;100967.84;5109418;27;20581;-82
2022/05/01 03:45:31;;;;;;;8.52;5.30;;;;;;;17.51;54.33;100991.75;5119202;27;20068;-84
2022/05/01 03:47:58;;;;;;;6.95;4.95;;;;;;;17.51;54.34;100998.25;5142316;27;20520;-83
2022/05/01 03:50:25;;;;;;;10.60;5.65;;;;;;;16.94;53.71;100887.72;5110208;28;20477;-80
2022/05/01 03:52:52;;;;;;;9.35;4.80;;;;;;;17.24;53.86;100931.38;5110377;28;20043;-80
2022/05/01 03:55:19;;;;;;;8.10;5.18;;;;;;;17.39;53.95;100966.06;5115390;27;20421;-80
2022/05/01 03:57:46;;;;;;;12.20;5.43;;;;;;;17.11;53.55;100923.75;5108440;28;20071;-79
2022/05/01 04:00:18;;;;;;;10.55;5.50;;;;;;;17.42;53.44;100976.72;5109974;27;20082;-80
2022/05/01 04:02:46;;;;;;;11.27;5.88;;;;;;;17.32;53.70;100976.94;5113267;28;20101;-80
2022/05/01 04:05:14;;;;;;;17.00;6.40;;;;;;;17.10;53.94;100953.13;5115794;27;20166;-79
2022/05/01 04:07:42;;;;;;;12.93;7.18;;;;;;;17.34;53.89;100974.66;5117716;28;20102;-79
2022/05/01 04:10:11;;;;;;;13.07;5.70;;;;;;;17.20;53.71;100946.44;5120621;27;20051;-79
2022/05/01 04:12:39;;;;;;;12.90;6.78;;;;;;;17.35;53.80;100974.31;5121612;27;20081;-80
2022/05/01 04:15:07;;;;;;;11.05;6.55;;;;;;;17.32;53.82;100977.78;5117281;28;20402;-79
2022/05/01 04:17:41;;;;;;;13.17;6.20;;;;;;;17.12;53.83;100948.00;5112140;27;20163;-81
2022/05/01 04:20:10;;;;;;;9.77;5.82;;;;;;;17.36;53.95;100977.97;5115180;27;20480;-79
2022/05/01 04:22:44;;;;;;;16.77;7.75;;;;;;;17.22;53.91;100947.78;5112592;28;20471;-77
2022/05/01 04:25:18;;;;;;;13.43;6.88;;;;;;;17.15;53.90;100938.06;5112682;28;20102;-80
2022/05/01 04:27:48;;;;;;;11.20;5.97;;;;;;;17.12;54.15;100928.25;5110421;28;20105;-83
2022/05/01 04:30:16;;;;;;;14.25;7.15;;;;;;;17.23;53.69;100954.25;5116148;27;20040;-83
2022/05/01 04:32:54;;;;;;;16.10;5.97;;;;;;;17.40;53.95;100984.66;5127236;27;20055;-81
2022/05/01 04:35:34;;;;;;;11.60;5.72;;;;;;;17.28;53.81;100965.44;5128693;27;20501;-81
2022/05/01 04:38:03;;;;;;;10.80;5.78;;;;;;;17.22;53.80;100944.94;5127894;27;20054;-80
2022/05/01 04:40:34;;;;;;;14.80;5.82;;;;;;;17.22;54.01;100941.31;5125178;28;20043;-82
2022/05/01 04:43:06;;;;;;;11.00;4.82;;;;;;;17.43;54.04;100984.84;5111499;27;20130;-80
2022/05/01 04:45:34;;;;;;;13.43;6.45;;;;;;;17.45;53.87;100984.56;5117257;27;20501;-79
2022/05/01 04:48:02;;;;;;;12.32;5.82;;;;;;;17.36;53.89;100961.03;5110099;27;20049;-79
2022/05/01 04:50:30;;;;;;;9.70;5.18;;;;;;;17.06;53.92;100929.53;5110329;28;20435;-81
2022/05/01 04:53:00;;;;;;;13.00;6.47;;;;;;;17.17;53.45;100950.72;5109762;28;20052;-81
2022/05/01 04:55:27;;;;;;;;;;;;;;;17.31;53.48;100978.09;5107893;27;20536;-83
2022/05/01 04:57:54;;;;;;;9.88;4.72;;;;;;;16.93;53.14;100919.09;5106040;27;19923;-81
2022/05/01 05:00:22;;;;;;;11.77;5.82;;;;;;;17.30;53.00;100982.91;5111685;27;20050;-79
2022/05/01 05:02:53;;;;;;;8.13;4.90;;;;;;;17.23;53.21;100986.16;5113567;27;20100;-78
2022/05/01 05:05:21;;;;;;;12.30;4.57;;;;;;;17.11;53.36;100974.56;5112837;28;20417;-86
2022/05/01 05:07:48;;;;;;;9.82;4.95;;;;;;;17.18;53.14;100988.25;5115027;28;20475;-86
2022/05/01 05:10:16;;;;;;;10.35;5.22;;;;;;;17.10;53.40;100953.13;5113214;28;20746;-79
2022/05/01 05:12:45;;;;;;;9.10;5.05;;;;;;;17.26;53.44;100994.00;5112511;28;20127;-86
2022/05/01 05:15:15;;;;;;;10.68;4.80;;;;;;;17.26;53.13;100993.13;5121227;27;20493;-80
2022/05/01 05:17:45;;;;;;;8.48;4.80;;;;;;;17.13;53.48;100972.25;5113208;28;20135;-82
2022/05/01 05:20:12;;;;;;;12.93;5.40;;;;;;;17.20;53.37;100992.44;5104962;28;20109;-77
2022/05/01 05:22:40;;;;;;;12.02;6.00;;;;;;;17.24;53.43;100999.13;5110149;28;20565;-82
2022/05/01 05:25:11;;;;;;;14.20;5.68;;;;;;;17.21;53.49;100988.44;5114532;28;20130;-84
2022/05/01 05:27:39;;;;;;;13.98;5.47;;;;;;;17.08;53.34;100961.06;5110438;28;20056;-81
2022/05/01 05:30:06;;;;;;;9.40;4.82;;;;;;;17.30;53.04;100997.03;5112997;28;20047;-79
2022/05/01 05:32:36;;;;;;;9.60;5.63;;;;;;;17.24;53.40;100993.47;5113061;27;20082;-83
2022/05/01 05:35:04;;;;;;;9.38;5.03;;;;;;;16.94;52.92;100938.50;5115061;28;20469;-79
2022/05/01 05:37:31;;;;;;;8.43;5.22;;;;;;;17.09;52.94;100968.38;5112775;28;20126;-84
2022/05/01 05:39:59;;;;;;;8.15;4.90;;;;;;;17.22;53.41;100989.28;5111283;28;20047;-83
2022/05/01 05:42:26;;;;;;;8.80;5.07;;;;;;;17.11;53.41;100971.72;5113661;28;20134;-84
2022/05/01 05:44:53;;;;;;;9.02;5.07;;;;;;;17.22;53.21;100994.94;5111681;27;20449;-83
2022/05/01 05:47:20;;;;;;;8.48;5.22;;;;;;;17.07;53.19;100976.34;5110907;28;20170;-83
2022/05/01 05:49:47;;;;;;;10.60;5.28;;;;;;;17.04;53.23;100971.31;5111336;27;20135;-84
2022/05/01 05:52:20;;;;;;;7.90;5.30;;;;;;;17.20;53.27;101008.53;5115194;28;20055;-80
2022/05/01 05:54:47;;;;;;;11.32;5.80;;;;;;;16.92;53.15;100983.13;5109141;27;20047;-84
2022/05/01 05:57:14;;;;;;;9.55;5.25;;;;;;;16.85;52.78;100976.22;5106186;27;20067;-81
2022/05/01 05:59:41;;;;;;;10.52;6.03;;;;;;;16.95;53.00;101001.41;5106018;27;20588;-80
2022/05/01 06:02:09;;;;;;;13.32;5.53;;;;;;;16.91;52.59;100995.56;5104768;28;20052;-84
2022/05/01 06:04:37;;;;;;;9.13;5.13;;;;;;;17.01;52.72;101014.25;5112085;27;20398;-78
2022/05/01 06:07:04;;;;;;;10.25;5.95;;;;;;;17.05;52.77;101007.69;5106115;27;20223;-79
2022/05/01 06:09:32;;;;;;;13.88;6.10;;;;;;;16.96;52.62;100998.28;5109637;28;20103;-84
2022/05/01 06:11:59;;;;;;;13.00;5.65;;;;;;;17.03;52.96;101000.69;5118067;28;20044;-87
2022/05/01 06:14:26;;;;;;;10.57;5.22;;;;;;;16.95;52.85;100987.28;5106678;27;20082;-86
2022/05/01 06:16:53;;;;;;;9.23;4.45;;;;;;;17.10;52.54;101015.22;5112843;27;20082;-85
2022/05/01 06:19:20;;;;;;;10.77;5.57;;;;;;;17.04;52.70;100999.53;5113963;27;20043;-81
2022/05/01 06:21:47;;;;;;;11.85;5.97;;;;;;;16.68;52.75;100949.44;5108229;28;20448;-83
2022/05/01 06:24:13;;;;;;;11.23;6.03;;;;;;;17.08;52.66;101000.56;5109800;28;20040;-77
2022/05/01 06:26:40;;;;;;;9.27;5.50;;;;;;;17.20;52.66;101015.00;5110969;27;20070;-73
2022/05/01 06:29:08;;;;;;;8.35;5.45;;;;;;;17.12;52.58;101007.25;5104573;27;20039;-75
2022/05/01 06:31:39;;;;;;;6.28;4.60;;;;;;;17.01;52.50;100988.88;5111822;27;20048;-79
2022/05/01 06:34:06;;;;;;;11.50;6.97;;;;;;;17.01;52.14;100991.69;5114386;28;20093;-77
2022/05/01 06:36:33;;;;;;;10.40;6.22;;;;;;;17.05;52.28;100990.75;5116461;28;20082;-80
2022/05/01 06:39:00;;;;;;;12.07;7.18;;;;;;;17.21;52.00;101010.19;5117486;28;20075;-77
2022/05/01 06:41:27;;;;;;;11.35;5.93;;;;;;;17.39;52.14;101028.16;5117911;27;20093;-87
2022/05/01 06:43:54;;;;;;;15.80;6.63;;;;;;;17.25;51.81;100994.31;5110389;27;20477;-80
2022/05/01 06:46:21;;;;;;;16.58;6.68;;;;;;;17.46;51.75;101014.44;5105349;27;20630;-83
2022/05/01 06:48:48;;;;;;;11.30;6.35;;;;;;;17.56;51.58;101010.56;5110031;28;20414;-82
2022/05/01 06:51:14;;;;;;;18.35;6.03;;;;;;;17.58;51.42;101003.47;5111382;28;20055;-84
2022/05/01 06:53:41;;;;;;;6.75;4.90;;;;;;;17.55;51.20;100980.66;5101793;28;20079;-84
2022/05/01 06:56:09;;;;;;;11.50;7.32;;;;;;;17.73;51.00;101007.91;5111145;28;20079;-83
2022/05/01 06:58:37;;;;;;;8.18;5.25;;;;;;;17.49;51.32;100966.66;5104104;28;20470;-84
2022/05/01 07:01:03;;;;;;;14.48;6.30;;;;;;;17.96;51.04;101029.44;5109564;28;20120;-82
2022/05/01 07:03:30;;;;;;;12.57;6.93;;;;;;;17.91;51.23;101000.47;5112080;28;20134;-83
2022/05/01 07:06:00;;;;;;;8.95;5.57;;;;;;;17.88;50.98;100999.13;5139759;27;20051;-83
2022/05/01 07:08:27;;;;;;;15.35;6.80;;;;;;;17.72;50.91;100994.97;5110392;28;20107;-82
2022/05/01 07:10:54;;;;;;;18.33;10.43;;;;;;;17.49;50.99;100977.13;5111584;28;20608;-81
2022/05/01 07:13:23;;;;;;;27.63;13.73;;;;;;;17.82;51.27;101036.28;5111027;28;20044;-77
2022/05/01 07:15:50;;;;;;;12.32;6.22;;;;;;;17.61;51.09;101016.94;5105999;28;20131;-78
2022/05/01 07:18:17;;;;;;;9.90;6.47;;;;;;;17.66;50.96;101024.47;5107459;28;20039;-79
2022/05/01 07:20:45;;;;;;;14.77;8.57;;;;;;;17.72;51.29;101037.31;5111074;28;20455;-81
2022/05/01 07:23:12;;;;;;;40.67;22.52;;;;;;;17.62;50.92;101021.44;5106643;28;20123;-78
2022/05/01 07:25:39;;;;;;;18.15;8.93;;;;;;;17.65;50.95;101029.28;5106935;28;20127;-77
2022/05/01 07:28:06;;;;;;;14.75;7.40;;;;;;;17.82;51.40;101039.13;5112331;28;20147;-82
2022/05/01 07:30:33;;;;;;;9.82;6.45;;;;;;;17.73;50.88;101010.75;5106935;28;20071;-82
2022/05/01 07:33:00;;;;;;;12.45;7.03;;;;;;;17.93;51.04;101037.72;5104165;28;20043;-81
2022/05/01 07:35:27;;;;;;;12.90;6.90;;;;;;;17.88;50.94;101026.53;5107647;28;20135;-80
2022/05/01 07:37:58;;;;;;;9.82;6.65;;;;;;;17.93;50.73;101032.06;5104953;28;20052;-80
2022/05/01 07:40:25;;;;;;;10.07;6.05;;;;;;;17.93;50.86;101038.56;5107963;28;20123;-74
2022/05/01 07:42:52;;;;;;;11.90;5.90;;;;;;;17.90;50.54;101039.19;5112147;28;20091;-73
2022/05/01 07:45:19;;;;;;;9.70;5.32;;;;;;;17.85;50.82;101030.00;5110862;28;20461;-73
2022/05/01 07:47:46;;;;;;;11.68;5.65;;;;;;;17.90;50.87;101015.75;5115929;28;20147;-74
2022/05/01 07:50:13;;;;;;;9.05;6.10;;;;;;;17.66;50.52;100962.31;5118906;28;20067;-75
2022/05/01 07:52:40;;;;;;;9.55;5.72;;;;;;;18.05;50.52;101012.56;5113967;28;20079;-81
2022/05/01 07:55:07;;;;;;;11.07;5.47;;;;;;;17.94;50.47;100988.53;5105364;28;20076;-75
2022/05/01 07:57:34;;;;;;;10.68;6.00;;;;;;;18.06;50.33;101007.75;5121269;28;20086;-75
2022/05/01 08:00:02;;;;;;;9.95;6.03;;;;;;;17.82;50.14;100954.38;5104939;28;20086;-74
2022/05/01 08:04:27;;;;;;;16.63;6.70;;;;;;;18.32;50.36;101030.56;5127856;28;20051;-74
2022/05/01 08:05:28;;;;;;;15.77;6.32;;;;;;;18.27;49.82;101019.38;5130344;28;20044;-73
2022/05/01 08:07:55;;;;;;;10.13;5.72;;;;;;;18.32;50.19;101022.06;5122596;28;20079;-75
2022/05/01 08:10:22;;;;;;;14.90;6.43;;;;;;;18.38;49.93;101020.78;5128574;28;20043;-74
2022/05/01 08:12:50;;;;;;;9.38;5.00;;;;;;;18.44;49.99;101030.81;5136890;28;20055;-74
2022/05/01 08:15:19;;;;;;;11.57;6.38;;;;;;;18.45;49.90;101032.47;5131077;27;20075;-74
2022/05/01 08:17:46;;;;;;;10.25;5.28;;;;;;;18.48;49.93;101035.50;5133673;28;20062;-76
2022/05/01 08:23:07;;;;;;;13.68;5.78;;;;;;;18.55;50.19;101040.69;5117822;28;20471;-74
2022/05/01 08:25:34;;;;;;;9.65;5.65;;;;;;;18.61;49.82;101042.25;5118950;28;20055;-74
2022/05/01 08:28:02;;;;;;;8.77;5.32;;;;;;;18.37;49.81;101025.59;5133403;28;20048;-73
2022/05/01 08:30:29;;;;;;;11.00;5.47;;;;;;;18.44;49.84;101026.00;5135702;28;20111;-74
2022/05/01 08:32:57;;;;;;;11.10;5.28;;;;;;;18.57;49.66;101038.41;5135352;28;20043;-73
2022/05/01 08:35:24;;;;;;;12.85;7.13;;;;;;;18.66;49.75;101044.91;5141480;28;20069;-73
2022/05/01 08:37:50;;;;;;;13.68;7.15;;;;;;;18.75;49.33;101047.03;5139199;28;20421;-75
2022/05/01 08:40:18;;;;;;;10.85;7.05;;;;;;;18.78;49.08;101035.88;5139614;28;20075;-74
2022/05/01 08:42:45;;;;;;;10.57;5.43;;;;;;;18.82;49.45;101030.41;5134055;28;20044;-77
2022/05/01 08:45:16;;;;;;;14.95;5.90;;;;;;;18.65;49.16;101012.16;5130320;28;20039;-73
2022/05/01 08:47:53;;;;;;;11.68;6.18;;;;;;;18.81;49.30;101029.59;5134225;28;20039;-73
2022/05/01 08:50:21;;;;;;;13.55;6.20;;;;;;;18.84;48.92;101022.44;5136054;28;20032;-75
2022/05/01 08:52:49;;;;;;;12.57;5.70;;;;;;;18.99;48.99;101035.34;5133907;28;20055;-76
2022/05/01 08:55:17;;;;;;;16.75;6.60;;;;;;;18.88;48.80;101023.47;5148637;27;20052;-73
2022/05/01 08:57:44;;;;;;;12.35;5.78;;;;;;;18.92;48.74;101010.31;5112535;28;20052;-74
2022/05/01 09:00:16;;;;;;;12.77;6.13;;;;;;;19.08;48.26;101037.03;5131006;28;20048;-74
2022/05/01 09:02:44;;;;;;;12.57;5.45;;;;;;;19.03;48.39;101013.69;5137430;28;20046;-73
2022/05/01 09:05:12;;;;;;;11.32;5.03;;;;;;;19.16;47.85;101041.91;5134588;27;20048;-73
2022/05/01 09:07:39;;;;;;;14.40;5.13;;;;;;;18.99;48.18;101019.19;5132678;28;20070;-75
2022/05/01 09:10:08;;;;;;;10.45;5.25;;;;;;;19.05;48.59;101020.72;5136536;28;20044;-75
2022/05/01 09:12:52;;;;;;;9.02;5.00;;;;;;;19.22;48.14;101044.59;5135924;28;20055;-75
2022/05/01 09:15:31;;;;;;;11.73;5.55;;;;;;;19.24;48.20;101045.91;5137237;28;20047;-74
2022/05/01 09:18:06;;;;;;;13.27;5.97;;;;;;;19.24;48.13;101036.59;5169615;27;20048;-74
2022/05/01 09:20:33;;;;;;;11.90;6.07;;;;;;;19.30;47.91;101038.13;5137436;28;20051;-75
2022/05/01 09:23:00;;;;;;;7.70;4.93;;;;;;;19.21;47.98;101008.94;5172610;27;20031;-73
2022/05/01 09:25:28;;;;;;;8.40;5.47;;;;;;;19.40;47.82;101026.50;5138994;28;20057;-73
2022/05/01 09:27:57;;;;;;;11.07;6.43;;;;;;;19.66;47.53;101052.09;5137739;28;20034;-72
2022/05/01 09:30:38;;;;;;;10.03;5.80;;;;;;;19.58;47.67;101039.53;5137765;28;20039;-73
2022/05/01 09:33:16;;;;;;;9.15;5.18;;;;;;;19.65;47.53;101036.25;5137998;28;20272;-73
2022/05/01 09:35:43;;;;;;;11.20;6.38;;;;;;;19.82;47.06;101058.09;5138637;28;20055;-73
2022/05/01 09:38:23;;;;;;;9.48;5.75;;;;;;;19.76;47.34;101036.75;5138372;28;20061;-74
2022/05/01 09:40:54;;;;;;;13.25;7.45;;;;;;;19.71;46.82;101034.91;5135387;28;20035;-73
2022/05/01 09:43:37;;;;;;;10.55;5.03;;;;;;;19.87;46.94;101044.63;5136165;28;20138;-73
2022/05/01 09:46:14;;;;;;;9.73;5.35;;;;;;;19.77;47.10;101024.28;5118965;28;20087;-73
2022/05/01 09:48:43;;;;;;;9.45;5.53;;;;;;;19.97;46.83;101045.47;5115430;28;20536;-74
2022/05/01 09:51:17;;;;;;;13.98;6.35;;;;;;;19.96;46.96;101040.94;5116173;28;20091;-73
2022/05/01 09:53:45;;;;;;;11.18;6.38;;;;;;;20.01;46.92;101044.47;5115130;28;20048;-73
2022/05/01 09:56:12;;;;;;;21.83;9.02;;;;;;;19.95;46.51;101040.13;5112475;28;20545;-73
2022/05/01 09:58:45;;;;;;;28.50;12.05;;;;;;;19.96;46.63;101050.28;5112050;28;20130;-73
2022/05/01 10:01:15;;;;;;;18.95;8.13;;;;;;;19.62;46.66;100998.06;5113779;28;20130;-72
2022/05/01 10:03:46;;;;;;;11.80;6.80;;;;;;;19.87;46.73;101018.28;5115397;28;20113;-73
2022/05/01 10:06:15;;;;;;;11.23;6.82;;;;;;;20.08;46.79;101046.81;5116904;28;20116;-73
2022/05/01 10:08:43;;;;;;;13.48;6.90;;;;;;;20.09;46.54;101043.63;5114790;28;20071;-73
2022/05/01 10:11:14;;;;;;;11.25;8.07;;;;;;;20.15;46.30;101049.97;5146012;27;20079;-73
2022/05/01 10:13:41;;;;;;;19.10;10.88;;;;;;;20.02;46.57;101022.63;5111847;28;20048;-73
2022/05/01 10:16:13;;;;;;;19.25;11.13;;;;;;;19.98;46.11;101002.59;5111637;28;20051;-73
2022/05/01 10:18:46;;;;;;;10.82;6.85;;;;;;;20.17;46.01;101033.47;5113547;28;20039;-73
2022/05/01 10:21:36;;;;;;;11.55;7.13;;;;;;;20.30;46.00;101048.63;5114300;28;20486;-73
2022/05/01 10:24:03;;;;;;;17.73;11.00;;;;;;;20.34;46.05;101038.28;5112840;28;20075;-73
2022/05/01 10:26:36;;;;;;;14.55;9.27;;;;;;;20.38;45.85;101027.13;5114115;28;20104;-72
2022/05/01 10:29:31;;;;;;;13.63;7.22;;;;;;;20.38;46.01;101015.78;5109781;28;20043;-74
2022/05/01 10:32:22;;;;;;;15.75;6.00;;;;;;;20.51;45.74;101041.16;5108786;28;20051;-74
2022/05/01 10:35:15;;;;;;;12.15;5.60;;;;;;;20.51;45.49;101037.44;5111037;28;20058;-74
2022/05/01 10:38:00;;;;;;;8.63;4.78;;;;;;;20.43;45.35;101050.47;5113649;28;20083;-74
2022/05/01 10:40:32;;;;;;;8.65;5.07;;;;;;;20.54;45.34;101036.78;5112728;27;20094;-74
2022/05/01 10:43:24;;;;;;;10.43;4.78;;;;;;;20.55;45.11;101010.09;5111376;28;20086;-74
2022/05/01 10:45:53;;;;;;;7.50;4.40;;;;;;;20.83;44.92;101030.38;5104907;28;20395;-73
2022/05/01 10:48:41;;;;;;;9.82;5.40;;;;;;;20.86;45.47;101035.41;5113245;28;20047;-73
2022/05/01 10:51:38;;;;;;;8.15;4.88;;;;;;;21.03;45.06;101029.66;5113331;28;20051;-74
2022/05/01 10:54:18;;;;;;;10.85;5.88;;;;;;;21.02;45.21;101036.47;5111852;28;20126;-72
2022/05/01 10:57:04;;;;;;;9.55;5.70;;;;;;;20.98;44.76;101012.78;5111835;28;20135;-75
2022/05/01 10:59:47;;;;;;;9.93;4.93;;;;;;;21.12;44.71;101014.56;5108506;28;20139;-73
2022/05/01 11:02:38;;;;;;;6.72;4.38;;;;;;;20.91;44.69;101029.53;5109792;28;20059;-73
2022/05/01 11:05:08;;;;;;;11.25;5.07;;;;;;;20.90;44.64;101022.19;5109478;28;20044;-73
2022/05/01 11:07:37;;;;;;;13.18;5.65;;;;;;;20.87;44.67;101000.16;5112111;28;20049;-74
2022/05/01 11:10:05;;;;;;;;;;;;;;;21.10;45.07;101025.47;5093624;28;20138;-74
2022/05/01 11:12:34;;;;;;;14.90;5.03;;;;;;;21.08;44.92;101002.25;5104705;28;19968;-74
2022/05/01 11:15:03;;;;;;;8.07;4.78;;;;;;;21.19;44.53;101024.22;5112096;28;20075;-74
2022/05/01 11:17:36;;;;;;;8.13;4.57;;;;;;;21.23;44.47;101018.69;5112890;28;20075;-74
2022/05/01 11:20:08;;;;;;;8.02;4.15;;;;;;;21.30;44.11;100987.78;5111759;28;20092;-73
2022/05/01 11:22:35;;;;;;;8.80;4.40;;;;;;;21.57;43.91;100999.81;5112467;28;20071;-74
2022/05/01 11:25:03;;;;;;;9.75;5.03;;;;;;;21.83;43.91;101016.72;5145259;27;20086;-74
2022/05/01 11:27:52;;;;;;;7.68;4.55;;;;;;;21.99;43.84;101004.38;5112455;28;20469;-75
2022/05/01 11:30:29;;;;;;;7.22;4.05;;;;;;;21.99;43.76;101010.06;5106995;28;20130;-75
2022/05/01 11:33:02;;;;;;;6.60;4.05;;;;;;;21.93;43.52;101005.75;5111419;28;20071;-74
2022/05/01 11:35:51;;;;;;;7.28;3.65;;;;;;;21.83;43.35;101003.31;5112369;28;20047;-75
2022/05/01 11:38:17;;;;;;;8.18;4.40;;;;;;;21.51;43.42;100968.78;5102088;28;20044;-74
2022/05/01 11:40:57;;;;;;;5.63;3.60;;;;;;;21.82;43.60;100995.16;5094900;28;20090;-74
2022/05/01 11:43:24;;;;;;;11.02;4.88;;;;;;;21.97;43.24;100986.81;5115758;28;20054;-74
2022/05/01 11:45:51;;;;;;;10.13;4.90;;;;;;;21.87;43.03;100969.34;5114454;28;20130;-72
2022/05/01 11:48:21;;;;;;;8.43;4.10;;;;;;;21.87;42.40;100961.63;5108947;28;20071;-73
2022/05/01 11:50:52;;;;;;;8.43;3.67;;;;;;;22.00;42.73;100988.13;5115775;28;20491;-75